Time;durP1;ratioP1;P1;durP2;ratioP2;P2;SDS_P1;SDS_P2;PMS_P1;PMS_P2;Temp;Humidity;BMP_temperature;BMP_pressure;BME280_temperature;BME280_humidity;BME280_pressure;Samples;Min_cycle;Max_cycle;Signal;HPM_P1;HPM_P2
2024/04/08 00:00:51;;;;;;;8.20;3.75;;;;;;;;;;5883037;28;20045;-66
2024/04/08 00:03:41;;;;;;;6.05;3.45;;;;;;;;;;5900541;28;20447;-67
2024/04/08 00:06:30;;;;;;;3.85;2.25;;;;;;;;;;5877307;28;20046;-67
2024/04/08 00:09:20;;;;;;;3.45;2.35;;;;;;;;;;5881494;28;20049;-67
2024/04/08 00:12:10;;;;;;;3.85;2.45;;;;;;;;;;5875016;28;20056;-66
2024/04/08 00:15:00;;;;;;;12.52;2.40;;;;;;;;;;5865213;28;20076;-67
2024/04/08 00:17:49;;;;;;;5.88;3.42;;;;;;;;;;5869064;28;20094;-66
2024/04/08 00:20:39;;;;;;;4.40;2.13;;;;;;;;;;5887949;28;20049;-66
2024/04/08 00:23:29;;;;;;;5.72;2.78;;;;;;;;;;5887766;28;20049;-66
2024/04/08 00:26:19;;;;;;;4.75;3.28;;;;;;;;;;5887275;28;20045;-66
2024/04/08 00:29:09;;;;;;;2.92;1.65;;;;;;;;;;5887276;28;20049;-66
2024/04/08 00:31:58;;;;;;;6.07;3.22;;;;;;;;;;5886299;28;20049;-66
2024/04/08 00:34:48;;;;;;;4.68;2.47;;;;;;;;;;5887542;28;20048;-66
2024/04/08 00:37:38;;;;;;;5.47;2.33;;;;;;;;;;5887355;28;20507;-66
2024/04/08 00:40:37;;;;;;;10.43;2.63;;;;;;;;;;5887682;28;20049;-66
2024/04/08 00:43:27;;;;;;;4.35;2.53;;;;;;;;;;5887108;28;20045;-66
2024/04/08 00:46:22;;;;;;;5.13;3.17;;;;;;;;;;5887290;28;20045;-66
2024/04/08 00:49:14;;;;;;;5.97;2.47;;;;;;;;;;5887274;28;20049;-66
2024/04/08 00:52:05;;;;;;;5.47;2.33;;;;;;;;;;5880270;28;20071;-66
2024/04/08 00:54:55;;;;;;;6.28;2.97;;;;;;;;;;5864288;28;20045;-67
2024/04/08 00:57:47;;;;;;;4.68;2.28;;;;;;;;;;5857633;28;20046;-66
2024/04/08 01:00:37;;;;;;;8.50;2.45;;;;;;;;;;5866893;28;20049;-66
2024/04/08 01:03:27;;;;;;;4.60;2.80;;;;;;;;;;5863424;28;20439;-66
2024/04/08 01:06:17;;;;;;;7.95;2.75;;;;;;;;;;5863634;28;20049;-66
2024/04/08 01:09:07;;;;;;;7.32;2.85;;;;;;;;;;5863516;28;20050;-66
2024/04/08 01:11:57;;;;;;;7.53;2.40;;;;;;;;;;5874075;28;20044;-66
2024/04/08 01:14:49;;;;;;;2.83;2.30;;;;;;;;;;5886599;28;20041;-66
2024/04/08 01:17:39;;;;;;;3.13;1.83;;;;;;;;;;5886577;28;20494;-66
2024/04/08 01:20:29;;;;;;;7.15;2.90;;;;;;;;;;5885913;28;20403;-66
2024/04/08 01:23:20;;;;;;;2.88;2.35;;;;;;;;;;5885686;28;20044;-66
2024/04/08 01:26:10;;;;;;;2.72;2.22;;;;;;;;;;5881689;28;20076;-66
2024/04/08 01:29:00;;;;;;;6.55;3.25;;;;;;;;;;5879917;28;20045;-66
2024/04/08 01:31:50;;;;;;;8.18;2.40;;;;;;;;;;5866150;28;20045;-66
2024/04/08 01:34:40;;;;;;;4.55;2.40;;;;;;;;;;5862995;28;20116;-66
2024/04/08 01:37:29;;;;;;;2.38;1.33;;;;;;;;;;5862970;28;20051;-66
2024/04/08 01:40:19;;;;;;;4.18;2.22;;;;;;;;;;5862848;28;20559;-66
2024/04/08 01:43:09;;;;;;;3.05;1.98;;;;;;;;;;5882786;28;20049;-66
2024/04/08 01:45:59;;;;;;;3.15;2.65;;;;;;;;;;5883960;28;20053;-66
2024/04/08 01:48:49;;;;;;;5.15;2.03;;;;;;;;;;5862730;28;20462;-66
2024/04/08 01:51:38;;;;;;;7.65;2.35;;;;;;;;;;5869984;28;20067;-66
2024/04/08 01:54:28;;;;;;;3.35;2.28;;;;;;;;;;5862118;28;20117;-66
2024/04/08 01:57:18;;;;;;;3.03;1.77;;;;;;;;;;5862085;28;20057;-66
2024/04/08 02:00:09;;;;;;;3.10;1.98;;;;;;;;;;5862680;28;20053;-66
2024/04/08 02:02:59;;;;;;;2.67;2.35;;;;;;;;;;5880873;28;20060;-66
2024/04/08 02:05:49;;;;;;;2.42;1.98;;;;;;;;;;5884477;28;20052;-66
2024/04/08 02:08:38;;;;;;;3.17;2.13;;;;;;;;;;5862582;28;20400;-66
2024/04/08 02:11:28;;;;;;;3.20;2.10;;;;;;;;;;5861840;28;20049;-66
2024/04/08 02:14:18;;;;;;;7.55;2.55;;;;;;;;;;5861882;28;20053;-66
2024/04/08 02:17:08;;;;;;;3.35;2.60;;;;;;;;;;5845447;28;20091;-66
2024/04/08 02:19:58;;;;;;;6.68;2.60;;;;;;;;;;5862771;28;20630;-66
2024/04/08 02:22:47;;;;;;;5.55;2.22;;;;;;;;;;5861563;28;20049;-66
2024/04/08 02:25:39;;;;;;;2.10;1.83;;;;;;;;;;5862199;28;20060;-66
2024/04/08 02:28:30;;;;;;;3.22;2.22;;;;;;;;;;5877609;28;20429;-66
2024/04/08 02:31:20;;;;;;;2.08;1.88;;;;;;;;;;5865787;28;20041;-66
2024/04/08 02:34:09;;;;;;;9.23;3.08;;;;;;;;;;5867845;28;20056;-66
2024/04/08 02:36:59;;;;;;;7.07;2.30;;;;;;;;;;5872250;28;20053;-66
2024/04/08 02:39:49;;;;;;;3.60;2.42;;;;;;;;;;5884812;28;20056;-66
2024/04/08 02:42:39;;;;;;;3.35;1.90;;;;;;;;;;5880870;28;20064;-66
2024/04/08 02:45:29;;;;;;;3.35;2.42;;;;;;;;;;5861735;28;20049;-66
2024/04/08 02:48:20;;;;;;;7.30;2.70;;;;;;;;;;5859950;28;20523;-66
2024/04/08 02:51:10;;;;;;;5.15;2.05;;;;;;;;;;5865141;28;20049;-66
2024/04/08 02:54:00;;;;;;;3.35;2.80;;;;;;;;;;5884858;28;20130;-66
2024/04/08 02:56:49;;;;;;;6.28;2.80;;;;;;;;;;5874469;28;20068;-66
2024/04/08 02:59:39;;;;;;;7.47;3.65;;;;;;;;;;5868976;28;20049;-66
2024/04/08 03:02:29;;;;;;;6.38;3.00;;;;;;;;;;5869523;28;20048;-66
2024/04/08 03:05:19;;;;;;;4.38;3.47;;;;;;;;;;5884284;28;20394;-66
2024/04/08 03:08:08;;;;;;;3.33;2.47;;;;;;;;;;5884071;28;20121;-66
2024/04/08 03:10:58;;;;;;;8.45;3.08;;;;;;;;;;5882546;28;20057;-66
2024/04/08 03:13:48;;;;;;;3.17;2.85;;;;;;;;;;5876185;28;20454;-66
2024/04/08 03:16:38;;;;;;;4.22;2.60;;;;;;;;;;5844687;28;20050;-66
2024/04/08 03:19:28;;;;;;;2.25;2.05;;;;;;;;;;5864751;28;20083;-66
2024/04/08 03:22:17;;;;;;;5.03;3.35;;;;;;;;;;5860138;28;20135;-66
2024/04/08 03:25:07;;;;;;;7.07;3.28;;;;;;;;;;5869154;28;20060;-66
2024/04/08 03:27:57;;;;;;;3.92;2.30;;;;;;;;;;5884389;28;20080;-66
2024/04/08 03:30:47;;;;;;;4.05;3.15;;;;;;;;;;5884208;28;20045;-66
2024/04/08 03:33:37;;;;;;;2.63;2.03;;;;;;;;;;5884370;28;20065;-66
2024/04/08 03:36:27;;;;;;;4.80;1.98;;;;;;;;;;5883447;28;20130;-66
2024/04/08 03:39:17;;;;;;;25.30;4.43;;;;;;;;;;5884056;28;20049;-66
2024/04/08 03:42:07;;;;;;;4.60;2.70;;;;;;;;;;5884090;28;20053;-66
2024/04/08 03:44:57;;;;;;;3.65;2.55;;;;;;;;;;5889190;28;20056;-66
2024/04/08 03:47:46;;;;;;;5.03;2.53;;;;;;;;;;5850196;28;20077;-66
2024/04/08 03:50:37;;;;;;;6.10;2.28;;;;;;;;;;5865480;28;20053;-66
2024/04/08 03:53:27;;;;;;;3.28;2.47;;;;;;;;;;5904309;28;20041;-66
2024/04/08 03:56:16;;;;;;;4.13;2.35;;;;;;;;;;5882425;28;20045;-66
2024/04/08 03:59:08;;;;;;;6.60;2.78;;;;;;;;;;5865023;28;20427;-66
2024/04/08 04:01:57;;;;;;;1.90;1.75;;;;;;;;;;5865309;28;20049;-66
2024/04/08 04:04:47;;;;;;;6.75;2.92;;;;;;;;;;5864877;28;20104;-66
2024/04/08 04:07:37;;;;;;;5.97;3.35;;;;;;;;;;5882836;28;20556;-66
2024/04/08 04:10:27;;;;;;;3.00;2.45;;;;;;;;;;5888252;28;20057;-66
2024/04/08 04:13:17;;;;;;;6.50;2.90;;;;;;;;;;5865778;28;20041;-66
2024/04/08 04:16:06;;;;;;;4.47;2.63;;;;;;;;;;5864205;28;20041;-66
2024/04/08 04:18:56;;;;;;;5.68;3.08;;;;;;;;;;5865386;28;20136;-66
2024/04/08 04:21:46;;;;;;;3.72;2.28;;;;;;;;;;5864531;28;20041;-66
2024/04/08 04:24:36;;;;;;;4.15;2.78;;;;;;;;;;5864638;28;20135;-66
2024/04/08 04:27:26;;;;;;;3.03;2.72;;;;;;;;;;5864145;28;20069;-66
2024/04/08 04:30:15;;;;;;;6.35;3.53;;;;;;;;;;5864368;28;20092;-66
2024/04/08 04:33:05;;;;;;;4.80;2.55;;;;;;;;;;5883971;28;20049;-66
2024/04/08 04:35:58;;;;;;;5.22;3.10;;;;;;;;;;5871092;28;20576;-66
2024/04/08 04:38:47;;;;;;;17.58;2.47;;;;;;;;;;5887733;28;20410;-66
2024/04/08 04:41:37;;;;;;;4.72;2.65;;;;;;;;;;5887263;28;20053;-66
2024/04/08 04:44:27;;;;;;;12.93;2.50;;;;;;;;;;5887667;28;20041;-66
2024/04/08 04:47:17;;;;;;;2.92;2.60;;;;;;;;;;5875230;28;20049;-66
2024/04/08 04:50:07;;;;;;;6.15;2.45;;;;;;;;;;5864455;28;20065;-66
2024/04/08 04:52:57;;;;;;;2.53;1.60;;;;;;;;;;5883001;28;20049;-66
2024/04/08 04:55:56;;;;;;;3.10;2.03;;;;;;;;;;5885618;28;20048;-66
2024/04/08 04:58:46;;;;;;;1.98;1.55;;;;;;;;;;5887301;28;20052;-66
2024/04/08 05:01:36;;;;;;;3.90;2.38;;;;;;;;;;5876919;28;20488;-66
2024/04/08 05:04:25;;;;;;;4.15;2.38;;;;;;;;;;5883759;28;20053;-66
2024/04/08 05:07:15;;;;;;;2.92;2.00;;;;;;;;;;5860553;28;20045;-66
2024/04/08 05:10:05;;;;;;;1.70;1.60;;;;;;;;;;5864083;28;20049;-66
2024/04/08 05:12:55;;;;;;;19.13;2.47;;;;;;;;;;5882766;28;20107;-66
2024/04/08 05:15:59;;;;;;;4.40;1.90;;;;;;;;;;5886842;28;20053;-66
2024/04/08 05:18:48;;;;;;;2.65;1.85;;;;;;;;;;5885047;28;20057;-66
2024/04/08 05:21:38;;;;;;;2.97;1.77;;;;;;;;;;5886917;28;20529;-66
2024/04/08 05:24:28;;;;;;;1.73;1.63;;;;;;;;;;5886916;28;20041;-66
2024/04/08 05:27:18;;;;;;;2.65;1.67;;;;;;;;;;5886208;28;20048;-66
2024/04/08 05:30:08;;;;;;;5.05;1.35;;;;;;;;;;5887201;28;20045;-67
2024/04/08 05:32:58;;;;;;;4.57;1.17;;;;;;;;;;5868560;28;20061;-67
2024/04/08 05:35:48;;;;;;;1.63;1.08;;;;;;;;;;5863260;28;20115;-67
2024/04/08 05:38:38;;;;;;;4.30;1.67;;;;;;;;;;5881293;28;20052;-67
2024/04/08 05:41:29;;;;;;;5.03;1.88;;;;;;;;;;5869278;28;20052;-67
2024/04/08 05:44:19;;;;;;;3.70;2.08;;;;;;;;;;5886480;28;20086;-67
2024/04/08 05:47:08;;;;;;;17.35;1.65;;;;;;;;;;5885840;28;20514;-67
2024/04/08 05:49:58;;;;;;;2.67;1.20;;;;;;;;;;5886903;28;20099;-67
2024/04/08 05:52:48;;;;;;;1.45;1.33;;;;;;;;;;5886119;28;20097;-67
2024/04/08 06:06:20;;;;;;;2.80;1.40;;;;;;;;;;5907831;28;20077;-69
2024/04/08 06:09:10;;;;;;;1.50;1.13;;;;;;;;;;5890255;28;20068;-67
2024/04/08 06:12:00;;;;;;;4.43;0.82;;;;;;;;;;5898727;28;21227;-67
2024/04/08 06:14:50;;;;;;;4.15;1.98;;;;;;;;;;5891290;28;20060;-67
2024/04/08 06:17:40;;;;;;;0.60;0.57;;;;;;;;;;5885698;28;20049;-70
2024/04/08 06:20:30;;;;;;;1.75;1.42;;;;;;;;;;5885293;28;20041;-67
2024/04/08 06:23:20;;;;;;;1.38;0.88;;;;;;;;;;5871102;28;20483;-67
2024/04/08 06:26:10;;;;;;;1.25;0.82;;;;;;;;;;5859416;28;20091;-68
2024/04/08 06:29:00;;;;;;;4.45;1.05;;;;;;;;;;5862573;28;20053;-67
2024/04/08 06:31:50;;;;;;;2.28;1.27;;;;;;;;;;5876643;28;20159;-68
2024/04/08 06:34:40;;;;;;;5.25;1.55;;;;;;;;;;5867724;28;20550;-68
2024/04/08 06:37:30;;;;;;;2.20;0.93;;;;;;;;;;5863148;28;20052;-67
2024/04/08 06:40:19;;;;;;;1.02;0.50;;;;;;;;;;5846400;28;20133;-68
2024/04/08 06:43:09;;;;;;;1.58;0.68;;;;;;;;;;5845434;28;20103;-69
2024/04/08 06:46:00;;;;;;;1.65;1.05;;;;;;;;;;5875760;28;20055;-68
2024/04/08 06:49:16;;;;;;;1.17;0.98;;;;;;;;;;5885879;28;20455;-74
2024/04/08 06:52:05;;;;;;;11.88;1.30;;;;;;;;;;5868276;28;20045;-68
2024/04/08 06:54:55;;;;;;;0.63;0.55;;;;;;;;;;5877175;28;20107;-68
2024/04/08 06:57:46;;;;;;;1.05;0.77;;;;;;;;;;5851645;28;20053;-69
2024/04/08 07:00:35;;;;;;;0.75;0.45;;;;;;;;;;5864608;28;20060;-69
2024/04/08 07:03:25;;;;;;;0.40;0.40;;;;;;;;;;5888528;28;20040;-69
2024/04/08 07:06:15;;;;;;;2.15;1.58;;;;;;;;;;5891220;28;20461;-68
2024/04/08 07:09:05;;;;;;;3.28;1.73;;;;;;;;;;5891735;28;20062;-68
2024/04/08 07:11:59;;;;;;;9.07;1.63;;;;;;;;;;5892172;28;20098;-69
2024/04/08 07:14:55;;;;;;;1.58;1.05;;;;;;;;;;5884595;28;20056;-73
2024/04/08 07:17:44;;;;;;;1.73;0.90;;;;;;;;;;5876015;28;20053;-69
2024/04/08 07:20:34;;;;;;;1.83;1.02;;;;;;;;;;5873340;28;20461;-69
2024/04/08 07:23:24;;;;;;;2.60;1.00;;;;;;;;;;5872670;28;20048;-69
2024/04/08 07:26:14;;;;;;;1.83;1.10;;;;;;;;;;5879362;28;20091;-69
2024/04/08 07:29:03;;;;;;;3.05;0.82;;;;;;;;;;5850149;28;20104;-70
2024/04/08 07:31:53;;;;;;;1.88;0.95;;;;;;;;;;5850325;28;20540;-69
2024/04/08 07:35:02;;;;;;;1.70;1.08;;;;;;;;;;5854214;28;20498;-69
2024/04/08 07:37:52;;;;;;;3.40;0.50;;;;;;;;;;5859939;28;20053;-67
2024/04/08 07:40:44;;;;;;;0.52;0.52;;;;;;;;;;5864255;28;20057;-68
2024/04/08 07:43:36;;;;;;;7.97;2.03;;;;;;;;;;5889407;28;20052;-69
2024/04/08 07:46:26;;;;;;;14.88;1.58;;;;;;;;;;5888722;28;20099;-69
2024/04/08 07:49:16;;;;;;;4.25;1.23;;;;;;;;;;5888991;28;20049;-69
2024/04/08 07:52:06;;;;;;;12.35;1.17;;;;;;;;;;5853355;28;20119;-68
2024/04/08 07:54:56;;;;;;;1.35;0.68;;;;;;;;;;5853708;28;20053;-68
2024/04/08 07:57:47;;;;;;;0.77;0.40;;;;;;;;;;5879930;28;20064;-68
2024/04/08 08:00:38;;;;;;;1.35;0.63;;;;;;;;;;5888767;28;20053;-69
2024/04/08 08:03:27;;;;;;;3.20;0.95;;;;;;;;;;5872292;28;20049;-69
2024/04/08 08:06:20;;;;;;;0.20;0.20;;;;;;;;;;5888294;28;20060;-68
2024/04/08 08:09:09;;;;;;;0.82;0.43;;;;;;;;;;5888374;28;20049;-70
2024/04/08 08:11:59;;;;;;;3.22;1.20;;;;;;;;;;5888766;28;20100;-69
2024/04/08 08:14:49;;;;;;;0.55;0.43;;;;;;;;;;5888078;28;20103;-69
2024/04/08 08:17:39;;;;;;;9.63;1.20;;;;;;;;;;5852602;28;20057;-69
2024/04/08 08:20:30;;;;;;;12.32;0.70;;;;;;;;;;5848292;28;20049;-70
2024/04/08 08:23:20;;;;;;;1.65;0.75;;;;;;;;;;5832250;28;20060;-67
2024/04/08 08:26:36;;;;;;;0.90;0.77;;;;;;;;;;5862742;28;20049;-75
2024/04/08 08:29:27;;;;;;;1.60;0.32;;;;;;;;;;5898817;28;20049;-69
2024/04/08 08:32:17;;;;;;;1.20;0.68;;;;;;;;;;5894737;28;20056;-69
2024/04/08 08:35:07;;;;;;;2.38;0.70;;;;;;;;;;5893225;28;20052;-69
2024/04/08 08:37:59;;;;;;;0.25;0.25;;;;;;;;;;5881754;28;20049;-68
2024/04/08 08:41:05;;;;;;;1.15;0.70;;;;;;;;;;5870896;28;20137;-68
2024/04/08 08:45:41;;;;;;;0.82;0.40;;;;;;;;;;6256492;25;1239926;-76
2024/04/08 08:48:36;;;;;;;1.33;0.52;;;;;;;;;;6209437;26;20132;-70
2024/04/08 08:51:29;;;;;;;2.83;0.93;;;;;;;;;;6209227;26;20394;-69
2024/04/08 08:54:20;;;;;;;1.58;0.75;;;;;;;;;;6209065;26;20354;-69
2024/04/08 08:57:12;;;;;;;0.30;0.30;;;;;;;;;;6207999;26;20013;-69
2024/04/08 09:00:08;;;;;;;0.68;0.60;;;;;;;;;;6209558;26;20459;-69
2024/04/08 09:03:00;;;;;;;0.50;0.40;;;;;;;;;;6209351;26;20019;-69
2024/04/08 09:05:54;;;;;;;1.75;0.98;;;;;;;;;;6244711;26;20016;-68
2024/04/08 09:08:46;;;;;;;1.15;0.60;;;;;;;;;;6249515;26;20005;-68
2024/04/08 09:11:46;;;;;;;9.70;4.90;;;;;;;;;;6248934;26;20001;-69
2024/04/08 09:14:37;;;;;;;1.08;0.38;;;;;;;;;;6249351;26;20339;-69
2024/04/08 09:17:28;;;;;;;0.70;0.50;;;;;;;;;;6217447;26;20360;-68
2024/04/08 09:20:19;;;;;;;5.60;1.05;;;;;;;;;;6209148;26;20005;-69
2024/04/08 09:23:11;;;;;;;8.65;0.95;;;;;;;;;;6208665;26;20496;-69
2024/04/08 09:26:02;;;;;;;1.95;0.65;;;;;;;;;;6208080;26;20016;-69
2024/04/08 09:28:53;;;;;;;2.10;0.60;;;;;;;;;;6209472;26;20009;-69
2024/04/08 09:31:45;;;;;;;1.02;0.50;;;;;;;;;;6208732;26;20443;-69
2024/04/08 09:34:36;;;;;;;0.50;0.45;;;;;;;;;;6237911;26;20013;-69
2024/04/08 09:37:31;;;;;;;0.52;0.50;;;;;;;;;;6242816;26;20889;-68
2024/04/08 09:40:25;;;;;;;3.25;1.13;;;;;;;;;;6249114;26;20040;-69
2024/04/08 09:43:17;;;;;;;9.70;4.45;;;;;;;;;;6245356;26;20056;-70
2024/04/08 09:46:10;;;;;;;0.82;0.82;;;;;;;;;;6246531;26;20017;-69
2024/04/08 12:08:41;;;;;;;0.43;0.43;;;;;;;;;;6272792;26;20325;-71
2024/04/08 12:11:32;;;;;;;2.75;0.65;;;;;;;;;;6293087;26;20015;-70
2024/04/08 12:14:24;;;;;;;0.57;0.47;;;;;;;;;;6265889;26;20049;-70
2024/04/08 12:17:15;;;;;;;0.50;0.50;;;;;;;;;;6267764;26;20035;-70
2024/04/08 12:20:07;;;;;;;2.05;0.95;;;;;;;;;;6268602;26;20027;-70
2024/04/08 12:22:58;;;;;;;4.03;0.82;;;;;;;;;;6209673;26;20004;-70
2024/04/08 12:25:49;;;;;;;1.05;0.70;;;;;;;;;;6267401;26;20032;-70
2024/04/08 12:28:42;;;;;;;13.70;0.95;;;;;;;;;;6268367;26;20051;-70
2024/04/08 12:31:33;;;;;;;0.60;0.43;;;;;;;;;;6237182;26;20461;-70
2024/04/08 12:34:24;;;;;;;3.92;1.75;;;;;;;;;;6267218;26;20008;-70
2024/04/08 12:37:17;;;;;;;1.55;1.20;;;;;;;;;;6268038;26;20342;-70
2024/04/08 12:40:08;;;;;;;2.83;1.52;;;;;;;;;;6266576;26;20019;-70
2024/04/08 12:42:59;;;;;;;2.35;1.25;;;;;;;;;;6266935;26;20447;-70
2024/04/08 12:45:50;;;;;;;1.05;0.88;;;;;;;;;;6267292;26;20327;-70
2024/04/08 12:48:44;;;;;;;3.88;1.42;;;;;;;;;;6267648;26;20457;-70
2024/04/08 12:51:35;;;;;;;0.90;0.28;;;;;;;;;;6267896;26;20004;-70
2024/04/08 12:54:26;;;;;;;0.95;0.50;;;;;;;;;;6236607;26;20465;-70
2024/04/08 12:57:17;;;;;;;2.20;0.15;;;;;;;;;;6267447;26;20081;-70
2024/04/08 13:00:09;;;;;;;8.30;0.68;;;;;;;;;;6267211;26;20417;-70
2024/04/08 13:03:00;;;;;;;0.40;0.40;;;;;;;;;;6267093;26;20008;-70
2024/04/08 13:05:51;;;;;;;0.65;0.47;;;;;;;;;;6236067;26;20078;-70
2024/04/08 13:08:42;;;;;;;0.57;0.35;;;;;;;;;;6267005;26;20005;-70
2024/04/08 13:11:33;;;;;;;1.20;0.35;;;;;;;;;;6236771;26;20010;-70
2024/04/08 13:14:24;;;;;;;2.38;0.40;;;;;;;;;;6266532;26;20392;-70
2024/04/08 13:17:15;;;;;;;0.75;0.43;;;;;;;;;;6267058;26;20004;-70
2024/04/08 13:20:06;;;;;;;1.65;0.52;;;;;;;;;;6267081;26;20015;-69
2024/04/08 13:22:57;;;;;;;0.60;0.40;;;;;;;;;;6267397;26;20001;-69
2024/04/08 13:25:48;;;;;;;1.42;0.70;;;;;;;;;;6265660;26;20030;-69
2024/04/08 13:28:39;;;;;;;2.00;0.65;;;;;;;;;;6236239;26;20018;-69
2024/04/08 13:31:30;;;;;;;0.47;0.20;;;;;;;;;;6269997;26;20004;-69
2024/04/08 13:34:21;;;;;;;1.08;0.50;;;;;;;;;;6270564;26;20016;-71
2024/04/08 13:37:12;;;;;;;2.65;0.40;;;;;;;;;;6269647;26;20015;-70
2024/04/08 13:40:05;;;;;;;0.55;0.50;;;;;;;;;;6268808;26;20109;-70
2024/04/08 13:42:56;;;;;;;2.83;0.70;;;;;;;;;;6270005;26;20005;-70
2024/04/08 13:45:47;;;;;;;0.45;0.28;;;;;;;;;;6270188;26;20345;-70
2024/04/08 13:48:38;;;;;;;0.35;0.30;;;;;;;;;;6271042;26;20465;-72
2024/04/08 13:51:29;;;;;;;1.25;0.65;;;;;;;;;;6270610;26;20048;-70
2024/04/08 13:54:26;;;;;;;0.47;0.40;;;;;;;;;;6270804;26;20077;-70
2024/04/08 13:57:18;;;;;;;0.52;0.20;;;;;;;;;;6269989;26;20004;-70
2024/04/08 14:00:12;;;;;;;1.15;0.50;;;;;;;;;;6270815;26;20077;-70
2024/04/08 14:03:03;;;;;;;1.65;0.40;;;;;;;;;;6270541;26;20004;-70
2024/04/08 14:05:55;;;;;;;2.10;0.63;;;;;;;;;;6289215;26;20238;-70
2024/04/08 14:08:46;;;;;;;1.05;0.35;;;;;;;;;;6311641;26;20008;-70
2024/04/08 14:11:38;;;;;;;5.93;0.40;;;;;;;;;;6311204;26;20011;-70
2024/04/08 14:14:31;;;;;;;1.05;0.50;;;;;;;;;;6308590;26;20014;-70
2024/04/08 14:17:22;;;;;;;1.45;0.22;;;;;;;;;;6310511;26;20003;-70
2024/04/08 14:20:13;;;;;;;0.80;0.30;;;;;;;;;;6310320;26;20014;-70
2024/04/08 14:23:04;;;;;;;0.45;0.45;;;;;;;;;;6310760;26;20474;-70
2024/04/08 14:25:55;;;;;;;2.42;0.90;;;;;;;;;;6310489;26;20023;-70
2024/04/08 14:28:46;;;;;;;1.02;0.38;;;;;;;;;;6310494;26;20452;-70
2024/04/08 14:31:38;;;;;;;1.10;0.50;;;;;;;;;;6310701;26;20004;-70
2024/04/08 14:34:28;;;;;;;4.53;0.45;;;;;;;;;;6308853;26;20166;-70
2024/04/08 14:37:20;;;;;;;1.85;0.52;;;;;;;;;;6310238;26;20326;-70
2024/04/08 14:40:30;;;;;;;0.40;0.25;;;;;;;;;;6310253;26;20008;-70
2024/04/08 14:43:21;;;;;;;2.58;0.63;;;;;;;;;;6310144;26;20035;-69
2024/04/08 14:46:22;;;;;;;2.85;0.55;;;;;;;;;;6310191;26;20650;-69
2024/04/08 14:49:14;;;;;;;0.45;0.43;;;;;;;;;;6308274;26;20004;-70
2024/04/08 14:52:05;;;;;;;0.40;0.40;;;;;;;;;;6309956;26;20111;-70
2024/04/08 14:55:02;;;;;;;0.82;0.55;;;;;;;;;;6310028;26;20406;-70
2024/04/08 14:57:53;;;;;;;0.52;0.38;;;;;;;;;;6310662;26;20022;-70
2024/04/08 15:00:44;;;;;;;3.08;0.20;;;;;;;;;;6309781;26;20014;-69
2024/04/08 15:03:35;;;;;;;3.58;0.50;;;;;;;;;;6310031;26;20015;-69
2024/04/08 15:06:26;;;;;;;9.02;0.73;;;;;;;;;;6309844;26;20578;-69
2024/04/08 15:09:17;;;;;;;1.42;0.77;;;;;;;;;;6278886;26;20420;-70
2024/04/08 15:12:08;;;;;;;2.90;0.90;;;;;;;;;;6310004;26;20044;-69
2024/04/08 15:15:00;;;;;;;2.97;1.00;;;;;;;;;;6310068;26;20126;-69
2024/04/08 15:17:56;;;;;;;1.93;0.43;;;;;;;;;;6309988;26;20084;-69
2024/04/08 15:20:47;;;;;;;3.47;0.75;;;;;;;;;;6309526;26;20668;-69
2024/04/08 15:23:38;;;;;;;1.50;0.35;;;;;;;;;;6309802;26;20022;-69
2024/04/08 15:26:29;;;;;;;2.00;0.28;;;;;;;;;;6309679;26;20127;-69
2024/04/08 15:29:20;;;;;;;0.90;0.52;;;;;;;;;;6309364;26;20366;-69
2024/04/08 15:32:10;;;;;;;1.80;0.73;;;;;;;;;;6309402;26;20322;-69
2024/04/08 15:35:01;;;;;;;2.70;0.30;;;;;;;;;;6309566;26;20015;-69
2024/04/08 15:37:54;;;;;;;0.98;0.40;;;;;;;;;;6309710;26;20013;-69
2024/04/08 15:40:55;;;;;;;0.43;0.32;;;;;;;;;;6308915;26;20003;-69
2024/04/08 15:43:46;;;;;;;0.77;0.55;;;;;;;;;;6309362;26;20027;-69
2024/04/08 15:46:37;;;;;;;12.55;1.35;;;;;;;;;;6309557;26;20018;-69
2024/04/08 15:49:29;;;;;;;0.65;0.65;;;;;;;;;;6309044;26;20010;-69
2024/04/08 15:52:20;;;;;;;0.40;0.30;;;;;;;;;;6308414;26;20147;-69
2024/04/08 15:55:11;;;;;;;0.73;0.60;;;;;;;;;;6308950;26;20004;-69
2024/04/08 15:58:02;;;;;;;4.03;0.82;;;;;;;;;;6309363;26;20008;-69
2024/04/08 16:01:05;;;;;;;0.38;0.38;;;;;;;;;;6309701;26;19999;-69
2024/04/08 16:03:58;;;;;;;2.70;0.90;;;;;;;;;;6309686;26;20457;-69
2024/04/08 16:06:52;;;;;;;11.93;3.45;;;;;;;;;;6309111;26;20000;-69
2024/04/08 16:09:43;;;;;;;7.03;3.10;;;;;;;;;;6309277;26;20456;-69
2024/04/08 16:12:35;;;;;;;1.90;1.20;;;;;;;;;;6309682;26;20012;-69
2024/04/08 16:15:26;;;;;;;1.23;0.85;;;;;;;;;;6309111;26;20008;-69
2024/04/08 16:18:22;;;;;;;1.58;1.15;;;;;;;;;;6309209;26;20494;-69
2024/04/08 16:21:16;;;;;;;2.05;1.08;;;;;;;;;;6309145;26;20540;-69
2024/04/08 16:24:07;;;;;;;3.67;1.58;;;;;;;;;;6308803;26;20031;-69
2024/04/08 16:26:58;;;;;;;2.05;0.77;;;;;;;;;;6309477;26;20054;-69
2024/04/08 16:29:49;;;;;;;1.13;0.60;;;;;;;;;;6308712;26;20080;-69
2024/04/08 16:32:39;;;;;;;0.80;0.80;;;;;;;;;;6308908;26;20015;-69
2024/04/08 16:35:30;;;;;;;5.20;1.38;;;;;;;;;;6277802;26;20003;-69
2024/04/08 16:38:21;;;;;;;1.27;0.90;;;;;;;;;;6308361;26;20038;-69
2024/04/08 16:41:13;;;;;;;1.13;0.77;;;;;;;;;;6308763;26;20040;-69
2024/04/08 16:44:06;;;;;;;5.78;1.25;;;;;;;;;;6308793;26;20014;-69
2024/04/08 16:46:58;;;;;;;0.45;0.35;;;;;;;;;;6309168;26;20003;-69
2024/04/08 16:49:48;;;;;;;0.90;0.65;;;;;;;;;;6308479;26;20011;-69
2024/04/08 16:52:39;;;;;;;0.40;0.32;;;;;;;;;;6308599;26;20051;-69
2024/04/08 16:55:30;;;;;;;0.38;0.38;;;;;;;;;;6308406;26;20018;-69
2024/04/08 16:58:22;;;;;;;0.55;0.20;;;;;;;;;;6308217;26;20043;-69
2024/04/08 17:01:13;;;;;;;5.10;0.88;;;;;;;;;;6308342;26;20011;-69
2024/04/08 17:04:04;;;;;;;1.45;0.70;;;;;;;;;;6308323;26;20003;-69
2024/04/08 17:06:56;;;;;;;0.77;0.40;;;;;;;;;;6312684;26;20021;-69
2024/04/08 17:09:47;;;;;;;0.65;0.50;;;;;;;;;;6312375;26;20345;-69
2024/04/08 17:12:38;;;;;;;1.85;0.88;;;;;;;;;;6297234;26;20004;-69
2024/04/08 17:15:29;;;;;;;11.85;1.25;;;;;;;;;;6270208;26;20000;-69
2024/04/08 17:18:20;;;;;;;8.25;1.63;;;;;;;;;;6271229;26;20345;-69
2024/04/08 17:21:11;;;;;;;18.90;1.88;;;;;;;;;;6271532;26;20004;-69
2024/04/08 17:24:03;;;;;;;2.15;0.90;;;;;;;;;;6271468;26;20000;-69
2024/04/08 17:26:54;;;;;;;0.52;0.32;;;;;;;;;;6271977;26;20093;-69
2024/04/08 17:29:45;;;;;;;15.82;2.35;;;;;;;;;;6271242;26;20004;-69
2024/04/08 17:32:36;;;;;;;2.90;1.40;;;;;;;;;;6270825;26;20016;-69
2024/04/08 17:35:26;;;;;;;4.28;1.13;;;;;;;;;;6270803;26;20010;-69
2024/04/08 17:38:19;;;;;;;6.82;3.55;;;;;;;;;;6270483;26;20015;-68
2024/04/08 17:41:13;;;;;;;29.88;14.30;;;;;;;;;;6270841;26;20008;-68
2024/04/08 17:44:04;;;;;;;15.55;6.03;;;;;;;;;;6270553;26;20072;-68
2024/04/08 17:46:55;;;;;;;20.88;8.40;;;;;;;;;;6270661;26;20430;-68
2024/04/08 17:49:46;;;;;;;12.38;7.85;;;;;;;;;;6270184;26;20044;-68
2024/04/08 17:52:37;;;;;;;20.02;11.40;;;;;;;;;;6270434;26;20004;-68
2024/04/08 17:55:28;;;;;;;19.17;9.25;;;;;;;;;;6270241;26;20012;-68
2024/04/08 17:58:19;;;;;;;33.65;13.63;;;;;;;;;;6269885;26;20004;-68
2024/04/08 18:01:14;;;;;;;19.23;10.15;;;;;;;;;;6270154;26;20004;-68
2024/04/08 18:04:05;;;;;;;14.82;6.25;;;;;;;;;;6269946;26;20015;-68
2024/04/08 18:06:56;;;;;;;22.55;8.52;;;;;;;;;;6270536;26;20026;-68
2024/04/08 18:09:48;;;;;;;12.98;5.22;;;;;;;;;;6269726;26;20004;-68
2024/04/08 18:12:39;;;;;;;5.93;2.10;;;;;;;;;;6269813;26;20036;-68
2024/04/08 18:15:35;;;;;;;5.07;1.50;;;;;;;;;;6269481;26;20008;-68
2024/04/08 18:18:26;;;;;;;4.78;1.90;;;;;;;;;;6269511;26;20036;-68
2024/04/08 18:21:22;;;;;;;7.30;3.10;;;;;;;;;;6269692;26;20453;-68
2024/04/08 18:24:13;;;;;;;14.52;3.85;;;;;;;;;;6269586;26;20004;-68
2024/04/08 18:27:04;;;;;;;12.10;4.50;;;;;;;;;;6269552;26;20004;-68
2024/04/08 18:29:55;;;;;;;6.18;3.13;;;;;;;;;;6269996;26;20004;-68
2024/04/08 18:32:50;;;;;;;8.23;2.95;;;;;;;;;;6269425;26;20004;-68
2024/04/08 18:35:41;;;;;;;7.35;2.55;;;;;;;;;;6269620;26;20004;-68
2024/04/08 18:38:32;;;;;;;8.55;2.65;;;;;;;;;;6269464;26;20298;-68
2024/04/08 18:41:23;;;;;;;8.20;2.30;;;;;;;;;;6267372;26;20160;-68
2024/04/08 18:44:14;;;;;;;6.32;2.55;;;;;;;;;;6269256;26;20457;-68
2024/04/08 18:47:05;;;;;;;7.32;4.13;;;;;;;;;;6267273;26;20004;-68
2024/04/08 18:49:56;;;;;;;13.88;3.33;;;;;;;;;;6269480;26;20032;-68
2024/04/08 18:52:47;;;;;;;5.43;2.30;;;;;;;;;;6267316;26;20413;-68
2024/04/08 18:55:38;;;;;;;11.15;3.22;;;;;;;;;;6238551;26;20014;-67
2024/04/08 18:58:30;;;;;;;5.00;2.38;;;;;;;;;;6268706;26;20011;-67
2024/04/08 19:01:23;;;;;;;8.05;4.18;;;;;;;;;;6268900;26;20464;-67
2024/04/08 19:04:14;;;;;;;27.15;10.07;;;;;;;;;;6268550;26;20004;-67
2024/04/08 19:07:04;;;;;;;9.02;4.72;;;;;;;;;;6268827;26;20004;-68
2024/04/08 19:09:56;;;;;;;5.10;3.38;;;;;;;;;;6269217;26;20004;-67
2024/04/08 19:12:47;;;;;;;6.85;3.92;;;;;;;;;;6268636;26;20004;-67
2024/04/08 19:15:38;;;;;;;20.10;2.75;;;;;;;;;;6267109;26;20004;-67
2024/04/08 19:18:30;;;;;;;10.88;2.72;;;;;;;;;;6268602;26;20135;-67
2024/04/08 19:21:21;;;;;;;5.30;2.83;;;;;;;;;;6268613;26;20012;-67
2024/04/08 19:24:12;;;;;;;8.30;4.50;;;;;;;;;;6268484;26;20544;-67
2024/04/08 19:27:03;;;;;;;21.30;6.68;;;;;;;;;;6267742;26;20444;-67
2024/04/08 19:29:54;;;;;;;11.57;4.93;;;;;;;;;;6268345;26;20130;-67
2024/04/08 19:32:45;;;;;;;40.63;4.60;;;;;;;;;;6268471;26;20751;-67
2024/04/08 19:35:35;;;;;;;12.82;3.85;;;;;;;;;;6268515;26;20010;-67